Time;durP1;ratioP1;P1;durP2;ratioP2;P2;SDS_P1;SDS_P2;PMS_P1;PMS_P2;Temp;Humidity;BMP_temperature;BMP_pressure;BME280_temperature;BME280_humidity;BME280_pressure;Samples;Min_cycle;Max_cycle;Signal;HPM_P1;HPM_P2
2022/01/12 00:02:00;;;;;;;70.20;26.47;;;2.20;99.90;;;;;;4878152;29;20124;-87
2022/01/12 00:04:25;;;;;;;77.03;29.33;;;2.20;99.90;;;;;;4877429;29;20082;-86
2022/01/12 00:06:51;;;;;;;76.67;32.30;;;2.50;99.90;;;;;;4877161;29;20412;-87
2022/01/12 00:09:16;;;;;;;78.57;28.90;;;2.30;99.90;;;;;;4861873;29;20053;-87
2022/01/12 00:11:42;;;;;;;95.10;32.30;;;2.30;99.90;;;;;;4893403;29;20045;-87
2022/01/12 00:14:08;;;;;;;77.20;27.37;;;2.30;99.90;;;;;;4877136;29;20045;-87
2022/01/12 00:16:34;;;;;;;75.13;31.97;;;2.30;99.90;;;;;;4881734;29;20045;-86
2022/01/12 00:19:00;;;;;;;69.27;27.13;;;2.40;99.90;;;;;;4877660;29;20609;-87
2022/01/12 00:21:26;;;;;;;73.37;29.00;;;2.30;99.90;;;;;;4876787;29;20390;-87
2022/01/12 00:23:52;;;;;;;78.53;29.67;;;2.30;99.90;;;;;;4877784;29;20056;-87
2022/01/12 00:26:41;;;;;;;88.67;32.67;;;2.30;99.90;;;;;;4861874;29;20045;-87
2022/01/12 00:34:35;;;;;;;;;;;2.40;99.90;;;;;;4877375;29;20053;-86
2022/01/12 00:37:01;;;;;;;87.33;31.10;;;2.30;99.90;;;;;;4877666;29;20376;-87
2022/01/12 00:39:26;;;;;;;91.60;32.87;;;2.40;99.90;;;;;;4877249;29;20138;-87
2022/01/12 00:41:52;;;;;;;96.63;35.53;;;2.40;99.90;;;;;;4892456;29;20121;-87
2022/01/12 00:44:31;;;;;;;86.03;32.33;;;2.40;99.90;;;;;;4877262;29;20131;-86
2022/01/12 00:46:57;;;;;;;90.70;31.30;;;2.40;99.90;;;;;;4877949;29;20400;-87
2022/01/12 00:49:23;;;;;;;95.50;30.67;;;2.40;99.90;;;;;;4876358;29;20045;-87
2022/01/12 00:51:54;;;;;;;85.60;29.37;;;2.60;99.90;;;;;;4877941;29;20121;-87
2022/01/12 00:54:20;;;;;;;95.70;30.07;;;2.30;99.90;;;;;;4877067;29;20093;-87
2022/01/12 00:56:45;;;;;;;89.10;31.50;;;2.40;99.90;;;;;;4876416;29;20179;-87
2022/01/12 00:59:11;;;;;;;83.80;29.70;;;3.20;99.90;;;;;;4893201;29;20408;-87
2022/01/12 01:01:36;;;;;;;88.60;31.17;;;2.30;99.90;;;;;;4876521;29;20049;-87
2022/01/12 01:04:02;;;;;;;82.33;29.50;;;2.40;99.90;;;;;;4877741;29;20052;-88
2022/01/12 01:06:30;;;;;;;80.73;30.20;;;2.40;99.90;;;;;;4877183;29;20139;-87
2022/01/12 01:08:55;;;;;;;95.33;31.73;;;2.30;99.90;;;;;;4876594;29;20053;-87
2022/01/12 01:11:23;;;;;;;96.30;31.33;;;2.40;99.90;;;;;;4876614;29;20105;-87
2022/01/12 01:14:01;;;;;;;94.80;31.93;;;2.40;99.90;;;;;;4861764;29;20136;-87
2022/01/12 01:27:18;;;;;;;;;;;2.40;99.90;;;;;;4877032;29;20060;-87
2022/01/12 01:29:44;;;;;;;83.93;30.17;;;2.40;99.90;;;;;;4891798;29;19967;-86
2022/01/12 01:32:11;;;;;;;87.87;29.73;;;3.30;99.90;;;;;;4892012;29;20072;-87
2022/01/12 01:34:43;;;;;;;86.57;30.27;;;2.40;99.90;;;;;;4877518;29;20064;-87
2022/01/12 01:37:09;;;;;;;102.10;32.00;;;2.40;99.90;;;;;;4879966;29;20052;-87
2022/01/12 01:39:35;;;;;;;89.10;31.80;;;2.80;99.90;;;;;;4880253;29;20193;-87
2022/01/12 01:42:06;;;;;;;83.63;30.03;;;2.40;99.90;;;;;;4881326;29;20135;-87
2022/01/12 01:53:18;;;;;;;87.87;32.00;;;2.40;99.90;;;;;;4879444;29;20058;-87
2022/01/12 01:55:35;;;;;;;;;;;2.60;99.90;;;;;;4880261;29;20409;-87
2022/01/12 01:58:00;;;;;;;72.53;27.47;;;2.40;99.90;;;;;;4880011;29;19923;-87
2022/01/12 02:00:28;;;;;;;82.30;29.47;;;2.50;99.90;;;;;;4880022;29;20127;-87
2022/01/12 02:02:56;;;;;;;76.40;29.17;;;2.50;99.90;;;;;;4880320;29;20085;-86
2022/01/12 02:05:23;;;;;;;67.47;27.60;;;2.50;99.90;;;;;;4880194;29;20394;-87
2022/01/12 02:07:49;;;;;;;77.70;28.07;;;2.50;99.90;;;;;;4880526;29;20393;-87
2022/01/12 02:10:15;;;;;;;82.37;29.20;;;2.50;99.90;;;;;;4864493;29;20064;-87
2022/01/12 02:12:40;;;;;;;78.07;29.50;;;2.50;99.90;;;;;;4879135;29;20405;-86
2022/01/12 02:15:15;;;;;;;88.10;29.30;;;2.50;99.90;;;;;;4880904;29;20104;-87
2022/01/12 02:17:55;;;;;;;74.83;29.37;;;3.60;99.90;;;;;;4895192;29;20053;-86
2022/01/12 02:35:12;;;;;;;84.97;29.33;;;2.50;99.90;;;;;;4878849;29;20045;-87
2022/01/12 02:37:08;;;;;;;109.43;32.75;;;2.60;99.90;;;;;;4879408;29;20049;-87
2022/01/12 02:39:57;;;;;;;103.37;32.37;;;2.60;99.90;;;;;;4879162;29;20137;-86
2022/01/12 02:42:24;;;;;;;116.60;34.03;;;2.50;99.90;;;;;;4862981;29;20060;-86
2022/01/12 02:55:46;;;;;;;;;;;2.70;99.90;;;;;;4878815;29;20057;-86
2022/01/12 02:58:11;;;;;;;131.50;36.67;;;2.60;99.90;;;;;;4862897;29;20273;-86
2022/01/12 03:01:01;;;;;;;153.77;36.73;;;2.60;99.90;;;;;;4878777;29;20383;-86
2022/01/12 03:03:24;;;;;;;150.63;38.27;;;2.60;99.90;;;;;;4876409;29;20053;-86
2022/01/12 03:05:58;;;;;;;151.73;38.03;;;2.60;99.90;;;;;;4878448;29;20084;-86
2022/01/12 03:08:26;;;;;;;210.80;41.20;;;2.60;99.90;;;;;;4877750;29;20061;-86
2022/01/12 03:10:53;;;;;;;219.33;45.30;;;2.70;99.90;;;;;;4878667;29;20413;-87
2022/01/12 03:13:19;;;;;;;171.70;37.87;;;2.60;99.90;;;;;;4880125;29;20139;-87
2022/01/12 03:15:47;;;;;;;247.87;45.10;;;3.20;99.90;;;;;;4877774;29;20037;-87
2022/01/12 03:18:14;;;;;;;192.53;40.63;;;2.60;99.90;;;;;;4879330;29;20552;-86
2022/01/12 03:20:39;;;;;;;187.83;40.40;;;2.70;99.90;;;;;;4879748;29;20045;-86
2022/01/12 03:23:05;;;;;;;242.77;43.57;;;2.70;99.90;;;;;;4877943;29;20048;-86
2022/01/12 03:25:31;;;;;;;194.07;40.03;;;2.70;99.90;;;;;;4893855;29;20052;-86
2022/01/12 03:28:00;;;;;;;266.43;46.77;;;2.70;99.90;;;;;;4893973;29;20105;-86
2022/01/12 03:30:26;;;;;;;235.20;44.40;;;2.70;99.90;;;;;;4877573;29;20053;-86
2022/01/12 03:33:07;;;;;;;293.50;48.00;;;2.70;99.90;;;;;;4879577;29;20049;-86
2022/01/12 03:35:49;;;;;;;302.47;49.90;;;2.70;99.90;;;;;;4893579;29;20045;-87
2022/01/12 03:38:21;;;;;;;224.80;42.90;;;2.70;99.90;;;;;;4876959;29;20072;-86
2022/01/12 03:40:48;;;;;;;254.40;45.63;;;2.80;99.90;;;;;;4883365;29;20178;-87
2022/01/12 03:43:18;;;;;;;284.13;47.87;;;2.80;99.90;;;;;;4878068;29;20473;-86
2022/01/12 03:45:46;;;;;;;323.13;50.43;;;2.80;99.90;;;;;;4878209;29;20048;-87
2022/01/12 03:48:21;;;;;;;216.97;42.33;;;2.60;99.90;;;;;;4877751;29;20049;-86
2022/01/12 03:50:48;;;;;;;393.83;96.07;;;3.70;99.90;;;;;;4877481;29;20108;-87
2022/01/12 03:53:14;;;;;;;557.17;147.23;;;2.60;99.90;;;;;;4878056;29;20056;-87
2022/01/12 03:55:41;;;;;;;559.17;142.70;;;2.70;99.90;;;;;;4878172;29;20037;-86
2022/01/12 03:58:10;;;;;;;473.33;125.67;;;2.70;99.90;;;;;;4892585;29;20100;-87
2022/01/12 04:00:36;;;;;;;296.47;66.27;;;2.70;99.90;;;;;;4861993;29;20097;-87
2022/01/12 04:03:05;;;;;;;227.17;47.93;;;2.90;99.90;;;;;;4877840;29;20051;-87
2022/01/12 04:08:19;;;;;;;217.87;54.57;;;2.80;99.90;;;;;;4877739;29;20068;-86
2022/01/12 04:10:50;;;;;;;270.67;80.47;;;3.70;99.90;;;;;;4878091;29;20044;-86
2022/01/12 04:13:16;;;;;;;269.63;48.90;;;2.90;99.90;;;;;;4876802;29;20457;-87
2022/01/12 04:15:48;;;;;;;267.93;46.93;;;2.90;99.90;;;;;;4893516;29;20098;-87
2022/01/12 04:18:14;;;;;;;266.40;50.67;;;3.00;99.90;;;;;;4878781;29;20485;-87
2022/01/12 04:20:47;;;;;;;319.90;67.30;;;3.00;99.90;;;;;;4876742;29;20052;-86
2022/01/12 04:23:18;;;;;;;244.80;46.33;;;2.90;99.90;;;;;;4877744;29;20141;-87
2022/01/12 04:25:48;;;;;;;251.70;49.47;;;2.90;99.90;;;;;;4876912;29;20072;-86
2022/01/12 04:28:15;;;;;;;260.23;45.47;;;3.00;99.90;;;;;;4877770;29;20156;-86
2022/01/12 04:30:41;;;;;;;274.30;62.70;;;2.90;99.90;;;;;;4862428;29;20113;-87
2022/01/12 04:33:07;;;;;;;270.03;52.20;;;2.90;99.90;;;;;;4876802;29;20084;-87
2022/01/12 04:35:36;;;;;;;319.00;101.93;;;2.90;99.90;;;;;;4877095;29;20077;-87
2022/01/12 04:38:03;;;;;;;291.13;48.83;;;3.00;99.90;;;;;;4878768;29;20080;-87
2022/01/12 04:40:30;;;;;;;312.37;84.47;;;2.90;99.90;;;;;;4877967;29;20113;-87
2022/01/12 04:42:56;;;;;;;334.80;99.90;;;2.90;99.90;;;;;;4877811;29;20049;-86
2022/01/12 04:50:21;;;;;;;426.90;131.43;;;3.00;99.90;;;;;;4880351;29;20060;-86
2022/01/12 04:52:47;;;;;;;337.67;88.77;;;3.00;99.90;;;;;;4877404;29;20041;-87
2022/01/12 04:55:13;;;;;;;281.97;65.30;;;3.00;99.90;;;;;;4876602;29;20386;-87
2022/01/12 04:57:38;;;;;;;338.93;97.80;;;3.00;99.90;;;;;;4892879;29;20053;-87
2022/01/12 05:00:14;;;;;;;259.83;57.13;;;3.00;99.90;;;;;;4877351;29;20557;-86
2022/01/12 05:08:35;;;;;;;249.90;57.58;;;3.00;99.90;;;;;;4877727;29;20057;-87
2022/01/12 05:13:49;;;;;;;221.80;48.97;;;3.00;99.90;;;;;;4881044;29;20061;-87
2022/01/12 05:16:16;;;;;;;203.13;42.70;;;2.90;99.90;;;;;;4879869;29;20057;-87
2022/01/12 05:18:43;;;;;;;236.87;41.93;;;3.00;99.90;;;;;;4880701;29;20562;-87
2022/01/12 05:21:09;;;;;;;256.97;47.30;;;2.90;99.90;;;;;;4880668;29;20045;-86
2022/01/12 05:23:36;;;;;;;234.77;44.03;;;2.90;99.90;;;;;;4879644;29;20084;-87
2022/01/12 05:26:03;;;;;;;145.87;36.77;;;2.90;99.90;;;;;;4880557;29;20132;-87
2022/01/12 05:28:29;;;;;;;258.83;44.93;;;2.90;99.90;;;;;;4880570;29;20419;-87
2022/01/12 05:30:56;;;;;;;201.87;40.37;;;2.90;99.90;;;;;;4881152;29;20519;-86
2022/01/12 05:33:24;;;;;;;258.57;44.53;;;2.80;99.90;;;;;;4880186;29;20041;-87
2022/01/12 05:35:54;;;;;;;178.00;39.33;;;2.80;99.90;;;;;;4879752;29;20091;-86
2022/01/12 05:38:20;;;;;;;202.57;41.20;;;2.80;99.90;;;;;;4880000;29;20048;-86
2022/01/12 05:40:55;;;;;;;227.97;41.70;;;2.70;99.90;;;;;;4881895;29;20048;-87
2022/01/12 05:43:25;;;;;;;214.40;38.80;;;2.70;99.90;;;;;;4879834;29;20128;-87
2022/01/12 05:45:53;;;;;;;174.63;37.40;;;2.70;99.90;;;;;;4896126;29;20091;-87
2022/01/12 05:50:48;;;;;;;178.37;38.50;;;2.70;99.90;;;;;;4879646;29;20057;-87
2022/01/12 05:53:14;;;;;;;175.97;41.97;;;2.60;99.90;;;;;;4879834;29;20080;-87
2022/01/12 05:55:40;;;;;;;193.37;41.07;;;2.70;99.90;;;;;;4880445;29;20088;-87
2022/01/12 05:58:05;;;;;;;141.03;34.13;;;2.70;99.90;;;;;;4885232;29;20064;-87
2022/01/12 06:00:31;;;;;;;170.83;39.53;;;2.60;99.90;;;;;;4881035;29;20052;-87
2022/01/12 06:02:57;;;;;;;162.77;38.67;;;3.80;99.90;;;;;;4895614;29;20060;-87
2022/01/12 06:05:23;;;;;;;166.33;37.93;;;3.00;99.90;;;;;;4879965;29;20041;-87
2022/01/12 06:07:50;;;;;;;182.50;38.47;;;3.30;99.90;;;;;;4879922;29;20052;-87
2022/01/12 06:10:17;;;;;;;198.30;39.57;;;2.70;99.90;;;;;;4879583;29;20455;-87
2022/01/12 06:12:44;;;;;;;164.47;38.10;;;2.80;99.90;;;;;;4879335;29;20489;-87
2022/01/12 06:15:10;;;;;;;149.37;37.60;;;2.80;99.90;;;;;;4881060;29;20064;-87
2022/01/12 06:17:36;;;;;;;185.10;39.00;;;2.80;99.90;;;;;;4879465;29;20041;-87
2022/01/12 06:20:04;;;;;;;210.40;41.03;;;3.10;99.90;;;;;;4878887;29;20061;-86
2022/01/12 06:22:30;;;;;;;170.27;38.67;;;2.80;99.90;;;;;;4879392;29;20055;-87
2022/01/12 06:24:58;;;;;;;151.57;38.60;;;2.80;99.90;;;;;;4879872;29;20480;-87
2022/01/12 06:27:28;;;;;;;162.43;37.80;;;2.90;99.90;;;;;;4878488;29;20045;-87
2022/01/12 06:32:20;;;;;;;174.43;39.03;;;2.90;99.90;;;;;;4878535;29;20079;-87
2022/01/12 06:34:45;;;;;;;163.00;37.53;;;2.90;99.90;;;;;;4879344;29;20824;-86
2022/01/12 06:37:11;;;;;;;159.40;35.87;;;2.90;99.90;;;;;;4879285;29;20409;-87
2022/01/12 06:39:37;;;;;;;151.27;35.77;;;2.90;99.90;;;;;;4878465;29;20120;-87
2022/01/12 06:42:03;;;;;;;166.00;38.43;;;2.90;99.90;;;;;;4879253;29;20044;-87
2022/01/12 06:44:29;;;;;;;136.77;35.33;;;2.90;99.90;;;;;;4879112;29;20155;-87
2022/01/12 06:46:56;;;;;;;131.23;34.23;;;2.90;99.90;;;;;;4894097;29;20196;-87
2022/01/12 06:49:22;;;;;;;169.70;37.00;;;2.90;99.90;;;;;;4878711;29;20045;-87
2022/01/12 06:51:48;;;;;;;122.33;35.47;;;3.00;99.90;;;;;;4879283;29;20044;-87
2022/01/12 06:54:16;;;;;;;145.87;37.37;;;3.00;99.90;;;;;;4878771;29;20370;-87
2022/01/12 06:56:42;;;;;;;128.13;35.73;;;3.00;99.90;;;;;;4878746;29;20572;-86
2022/01/12 06:59:09;;;;;;;145.17;36.83;;;3.00;99.90;;;;;;4878764;29;20057;-88
2022/01/12 07:01:35;;;;;;;121.20;33.50;;;3.00;99.90;;;;;;4877929;29;20060;-89
2022/01/12 07:04:00;;;;;;;134.33;33.67;;;3.00;99.90;;;;;;4878880;29;20044;-89
2022/01/12 07:06:26;;;;;;;169.27;35.57;;;2.90;99.90;;;;;;4885589;29;20045;-89
2022/01/12 07:08:51;;;;;;;145.40;34.83;;;2.80;99.90;;;;;;4878972;29;20045;-89
2022/01/12 07:11:17;;;;;;;164.43;35.63;;;2.80;99.90;;;;;;4878195;29;20379;-89
2022/01/12 07:13:43;;;;;;;192.10;37.67;;;2.90;99.90;;;;;;4878702;29;20052;-92
2022/01/12 07:16:11;;;;;;;146.53;34.23;;;2.60;99.90;;;;;;4877333;29;20053;-89
2022/01/12 07:18:52;;;;;;;131.73;33.83;;;2.70;99.90;;;;;;4878764;29;20057;-88
2022/01/12 07:21:36;;;;;;;142.33;34.33;;;2.40;99.90;;;;;;4878369;29;20136;-88
2022/01/12 07:24:03;;;;;;;128.15;32.38;;;2.40;99.90;;;;;;4863543;29;20118;-93
2022/01/12 07:26:32;;;;;;;149.63;35.07;;;2.50;99.90;;;;;;4878266;29;20045;-92
2022/01/12 07:29:00;;;;;;;154.43;34.90;;;4.90;99.90;;;;;;4878177;29;20053;-93
2022/01/12 07:31:32;;;;;;;166.03;36.53;;;2.10;99.90;;;;;;4879002;29;20100;-92
2022/01/12 07:34:00;;;;;;;220.90;38.33;;;1.90;99.90;;;;;;4877751;29;20059;-94
2022/01/12 07:36:31;;;;;;;182.23;35.00;;;2.80;99.90;;;;;;4878381;29;20405;-94
2022/01/12 07:39:03;;;;;;;169.37;35.17;;;2.20;99.90;;;;;;4879234;29;20056;-92
2022/01/12 07:41:34;;;;;;;184.30;36.37;;;3.40;99.90;;;;;;4878217;29;20051;-93
2022/01/12 07:44:01;;;;;;;168.03;36.07;;;1.70;99.90;;;;;;4878428;29;20089;-93
2022/01/12 07:46:26;;;;;;;174.97;36.53;;;2.40;99.90;;;;;;4878682;29;20105;-91
2022/01/12 07:48:52;;;;;;;153.73;36.20;;;1.90;99.90;;;;;;4878877;29;20216;-93
2022/01/12 07:56:07;;;;;;;191.43;37.87;;;3.20;99.90;;;;;;4882207;29;20123;-91
2022/01/12 07:59:23;;;;;;;157.77;34.88;;;1.40;99.90;;;;;;4881250;29;20655;-92
2022/01/12 08:02:22;;;;;;;164.83;36.83;;;2.90;99.90;;;;;;4884470;23;20539;-96
2022/01/12 08:04:47;;;;;;;159.70;38.80;;;1.80;99.90;;;;;;4877897;29;20049;-94
2022/01/12 08:07:13;;;;;;;168.73;38.00;;;2.00;99.90;;;;;;4877880;29;20073;-92
2022/01/12 08:09:41;;;;;;;174.33;39.30;;;2.00;99.90;;;;;;4870939;29;20063;-92
2022/01/12 08:12:08;;;;;;;170.53;38.57;;;2.20;99.90;;;;;;4868909;29;20158;-92
2022/01/12 08:14:34;;;;;;;201.30;39.77;;;2.20;99.90;;;;;;4875539;29;20041;-93
2022/01/12 08:17:19;;;;;;;210.17;41.37;;;1.90;99.90;;;;;;4861844;29;20042;-92
2022/01/12 08:19:47;;;;;;;219.27;44.83;;;2.20;99.90;;;;;;4860587;29;20049;-93
2022/01/12 08:22:16;;;;;;;298.33;46.63;;;2.00;99.90;;;;;;4860791;29;20049;-91
2022/01/12 08:24:41;;;;;;;199.37;40.60;;;2.10;99.90;;;;;;4860086;29;20101;-91
2022/01/12 08:27:19;;;;;;;181.57;40.20;;;1.90;99.90;;;;;;4859748;29;20413;-92
2022/01/12 08:29:50;;;;;;;188.60;40.57;;;1.60;99.90;;;;;;4859795;29;20118;-93
2022/01/12 08:32:18;;;;;;;174.23;38.20;;;2.60;99.90;;;;;;4859406;29;20054;-92
2022/01/12 08:34:44;;;;;;;202.93;40.87;;;1.60;99.90;;;;;;4870887;29;20052;-92
2022/01/12 08:37:10;;;;;;;189.87;39.00;;;1.60;99.90;;;;;;4889201;29;20063;-92
2022/01/12 08:39:35;;;;;;;166.03;37.73;;;1.80;99.90;;;;;;4876678;29;20060;-84
2022/01/12 08:42:05;;;;;;;173.27;37.97;;;1.70;99.90;;;;;;4879563;29;20076;-94
2022/01/12 08:44:30;;;;;;;180.07;36.57;;;1.70;99.90;;;;;;4877370;29;20055;-86
2022/01/12 08:46:56;;;;;;;165.40;34.60;;;1.80;99.90;;;;;;4882306;29;20052;-92
2022/01/12 08:49:29;;;;;;;165.33;34.60;;;2.20;99.90;;;;;;4881014;29;20060;-92
2022/01/12 08:51:54;;;;;;;173.33;35.10;;;1.60;99.90;;;;;;4881714;29;20041;-89
2022/01/12 08:54:29;;;;;;;164.33;34.10;;;1.70;99.90;;;;;;4881617;29;20061;-91
2022/01/12 08:59:36;;;;;;;166.93;47.37;;;2.00;99.90;;;;;;4905643;23;20123;-91
2022/01/12 09:07:43;;;;;;;125.00;34.50;;;3.30;99.90;;;;;;4887292;23;20068;-95
2022/01/12 09:11:15;;;;;;;171.47;50.70;;;2.60;99.90;;;;;;4879014;23;20049;-94
2022/01/12 09:13:40;;;;;;;144.80;41.77;;;2.60;99.90;;;;;;4921785;23;20049;-95
2022/01/12 09:19:42;;;;;;;136.27;37.03;;;3.00;99.90;;;;;;4862967;29;20092;-95
2022/01/12 09:26:55;;;;;;;129.10;43.50;;;2.40;99.90;;;;;;4900907;29;20127;-93
2022/01/12 09:29:21;;;;;;;120.53;32.67;;;3.60;99.90;;;;;;4899197;29;20092;-93
2022/01/12 09:32:05;;;;;;;148.30;40.30;;;3.30;99.90;;;;;;4912339;23;20519;-94
2022/01/12 09:39:06;;;;;;;135.90;43.20;;;4.00;99.90;;;;;;4918835;23;20061;-93
2022/01/12 09:44:48;;;;;;;111.17;24.37;;;3.80;99.90;;;;;;4843212;29;20053;-93
2022/01/12 09:47:15;;;;;;;128.27;35.77;;;4.20;99.90;;;;;;5013008;23;20124;-93
2022/01/12 09:49:46;;;;;;;134.63;33.23;;;3.50;99.90;;;;;;4844957;29;20145;-94
2022/01/12 09:52:13;;;;;;;110.73;31.10;;;3.30;99.90;;;;;;4847241;29;20042;-93
2022/01/12 09:54:59;;;;;;;87.47;26.13;;;2.60;99.90;;;;;;4878746;23;20059;-95
2022/01/12 09:57:54;;;;;;;88.57;28.63;;;3.60;99.90;;;;;;4858791;29;20049;-94
2022/01/12 10:11:42;;;;;;;60.93;19.43;;;4.10;99.90;;;;;;4876672;29;20401;-92
2022/01/12 10:39:26;;;;;;;48.13;13.93;;;4.40;99.90;;;;;;4847348;29;20075;-96
2022/01/12 10:41:53;;;;;;;40.30;12.13;;;4.30;99.90;;;;;;4868697;24;20072;-96
2022/01/12 10:44:47;;;;;;;38.40;11.97;;;4.20;99.90;;;;;;4887147;29;20447;-94
2022/01/12 10:47:57;;;;;;;44.20;12.10;;;4.50;99.90;;;;;;4858598;29;20115;-92
2022/01/12 10:50:58;;;;;;;42.23;12.30;;;4.30;99.90;;;;;;4857130;29;20497;-96
2022/01/12 10:53:31;;;;;;;48.67;12.60;;;4.70;99.90;;;;;;4882762;29;20052;-96
2022/01/12 10:56:06;;;;;;;41.70;10.97;;;4.40;99.90;;;;;;4884270;29;20048;-96
2022/01/12 10:58:50;;;;;;;;;;;;;;;;;;;;;
2022/01/12 11:01:34;;;;;;;42.87;10.20;;;4.60;99.90;;;;;;4978333;23;20064;-94
2022/01/12 11:12:49;;;;;;;;;;;4.80;99.90;;;;;;4916948;23;20060;-96
2022/01/12 11:22:20;;;;;;;39.97;15.93;;;4.50;99.90;;;;;;4885019;29;20060;-96
2022/01/12 11:24:53;;;;;;;32.53;10.97;;;5.00;99.90;;;;;;4839137;29;20501;-96
2022/01/12 11:27:28;;;;;;;29.93;10.17;;;4.90;99.90;;;;;;4851583;29;20045;-96
2022/01/12 11:29:53;;;;;;;39.83;18.93;;;4.30;99.90;;;;;;4850132;29;20060;-95
2022/01/12 11:32:25;;;;;;;39.53;11.70;;;4.80;99.90;;;;;;4850232;29;20108;-95
2022/01/12 11:35:12;;;;;;;30.37;9.30;;;5.70;99.90;;;;;;4860428;23;20049;-96
2022/01/12 11:38:47;;;;;;;33.53;8.90;;;5.00;99.90;;;;;;4906125;23;20060;-96
2022/01/12 11:45:57;;;;;;;27.00;10.40;;;5.20;99.90;;;;;;4940915;23;20084;-96
2022/01/12 11:48:34;;;;;;;31.13;9.57;;;4.80;99.90;;;;;;4898985;29;20095;-91
2022/01/12 11:51:03;;;;;;;31.43;8.00;;;5.20;99.90;;;;;;4899143;29;20131;-96
2022/01/12 11:54:09;;;;;;;29.63;10.60;;;5.40;99.90;;;;;;4889011;29;20059;-96
2022/01/12 11:56:37;;;;;;;27.97;9.63;;;4.40;99.90;;;;;;4880511;29;20049;-92
2022/01/12 11:59:33;;;;;;;30.10;12.67;;;5.10;99.90;;;;;;4878728;29;20109;-93
2022/01/12 12:02:11;;;;;;;26.53;8.70;;;5.00;99.90;;;;;;4852731;29;20063;-93
2022/01/12 12:05:41;;;;;;;41.50;15.83;;;5.30;99.90;;;;;;4877397;29;20092;-93
2022/01/12 12:09:13;;;;;;;28.23;10.10;;;5.50;99.90;;;;;;4824510;29;20145;-92
2022/01/12 12:11:48;;;;;;;32.20;10.23;;;5.00;99.90;;;;;;4752039;30;20155;-92
2022/01/12 12:14:16;;;;;;;31.43;16.33;;;5.10;99.90;;;;;;4771219;30;20059;-92
2022/01/12 12:16:42;;;;;;;28.27;10.37;;;5.00;99.90;;;;;;4836664;29;20088;-91
2022/01/12 12:19:08;;;;;;;36.00;14.50;;;5.70;99.90;;;;;;4877464;29;20060;-92
2022/01/12 12:21:35;;;;;;;50.60;37.60;;;6.00;99.90;;;;;;4862024;29;20049;-93
2022/01/12 12:24:24;;;;;;;32.57;8.33;;;5.40;99.90;;;;;;4885703;23;20139;-93
2022/01/12 12:27:56;;;;;;;43.67;27.07;;;5.10;99.90;;;;;;4899033;23;20056;-93
2022/01/12 12:30:49;;;;;;;33.53;12.73;;;5.90;99.90;;;;;;4882203;29;20045;-95
2022/01/12 12:33:26;;;;;;;36.27;14.17;;;5.50;99.90;;;;;;4825788;29;20098;-94
2022/01/12 12:35:58;;;;;;;43.13;22.17;;;4.80;99.90;;;;;;4859424;23;20060;-95
2022/01/12 12:38:23;;;;;;;27.13;9.60;;;5.30;99.90;;;;;;4900359;29;20047;-95
2022/01/12 12:40:58;;;;;;;22.23;6.93;;;5.30;99.90;;;;;;4900198;29;20052;-95
2022/01/12 12:43:35;;;;;;;28.87;9.07;;;5.10;99.90;;;;;;4900225;29;20084;-95
2022/01/12 12:46:14;;;;;;;27.80;9.60;;;5.20;99.90;;;;;;4901258;29;20052;-95
2022/01/12 12:48:50;;;;;;;29.70;8.60;;;5.30;99.90;;;;;;4909803;29;20052;-95
2022/01/12 12:51:22;;;;;;;25.07;8.20;;;6.40;99.90;;;;;;4899369;29;20060;-95
2022/01/12 12:54:06;;;;;;;22.73;8.03;;;5.40;99.90;;;;;;4900508;29;20560;-95
2022/01/12 12:56:41;;;;;;;22.00;7.60;;;5.50;99.90;;;;;;4898081;29;20121;-93
2022/01/12 12:59:16;;;;;;;25.77;8.23;;;7.00;99.90;;;;;;4891722;29;20048;-93
2022/01/12 13:01:48;;;;;;;25.90;7.70;;;5.30;99.90;;;;;;4887104;29;20049;-93
2022/01/12 13:04:20;;;;;;;26.30;7.80;;;4.80;99.90;;;;;;4892294;29;20135;-92
2022/01/12 13:06:54;;;;;;;26.20;7.97;;;6.90;99.90;;;;;;4884583;29;20052;-92
2022/01/12 13:09:19;;;;;;;25.80;8.33;;;6.40;99.90;;;;;;4896632;29;20063;-93
2022/01/12 13:12:07;;;;;;;32.33;9.47;;;6.60;99.90;;;;;;4895389;29;20044;-92
2022/01/12 13:14:46;;;;;;;30.07;9.10;;;5.60;99.90;;;;;;4890705;29;20511;-92
2022/01/12 13:17:12;;;;;;;30.70;9.07;;;5.60;99.90;;;;;;4896086;29;20045;-92
2022/01/12 13:22:49;;;;;;;23.97;9.07;;;6.10;99.90;;;;;;4897062;29;20044;-90
2022/01/12 13:25:23;;;;;;;25.60;7.93;;;5.70;99.90;;;;;;4896145;29;20135;-90
2022/01/12 13:27:52;;;;;;;;;;;5.20;99.90;;;;;;4888811;29;20048;-92
2022/01/12 13:30:34;;;;;;;24.03;8.17;;;5.90;99.90;;;;;;4893980;29;19924;-93
2022/01/12 13:33:09;;;;;;;24.47;8.37;;;5.90;99.90;;;;;;4899236;29;20052;-93
2022/01/12 13:35:38;;;;;;;26.77;7.80;;;6.50;99.90;;;;;;4937160;24;20623;-90
2022/01/12 13:38:36;;;;;;;25.10;8.50;;;6.70;99.90;;;;;;4903555;23;20052;-91
2022/01/12 13:41:22;;;;;;;26.57;7.57;;;5.10;99.90;;;;;;4825311;29;20573;-93
2022/01/12 13:43:54;;;;;;;23.20;8.10;;;5.30;99.90;;;;;;4842171;29;20107;-88
2022/01/12 13:46:52;;;;;;;24.90;7.93;;;5.50;99.90;;;;;;4843073;29;20050;-89
2022/01/12 13:49:22;;;;;;;26.43;8.53;;;5.70;99.90;;;;;;4891576;23;20076;-90
2022/01/12 13:52:03;;;;;;;25.53;8.20;;;5.60;99.90;;;;;;4880084;29;20049;-86
2022/01/12 13:54:40;;;;;;;25.17;8.40;;;5.60;99.90;;;;;;4867431;29;20055;-85
2022/01/12 13:57:15;;;;;;;27.87;8.30;;;5.40;99.90;;;;;;4868961;29;20064;-87
2022/01/12 13:59:50;;;;;;;21.53;7.63;;;5.60;99.90;;;;;;4864443;29;20053;-85
2022/01/12 14:02:18;;;;;;;27.23;8.60;;;5.40;99.90;;;;;;4863473;29;20064;-85
2022/01/12 14:07:59;;;;;;;23.67;8.43;;;5.90;99.90;;;;;;4864343;29;20553;-86
2022/01/12 14:10:26;;;;;;;24.00;7.53;;;6.80;99.90;;;;;;4863588;29;20449;-86
2022/01/12 14:12:52;;;;;;;28.27;8.03;;;6.50;99.90;;;;;;4864374;29;20113;-87
2022/01/12 14:15:32;;;;;;;23.83;7.87;;;5.20;99.90;;;;;;4864320;29;20041;-87
2022/01/12 14:21:00;;;;;;;30.43;8.93;;;6.20;99.90;;;;;;4864447;29;20524;-88
2022/01/12 14:23:56;;;;;;;25.83;8.73;;;5.20;99.90;;;;;;4874509;29;20106;-91
2022/01/12 14:28:47;;;;;;;30.23;9.23;;;5.40;99.90;;;;;;4911077;23;20094;-92
2022/01/12 14:31:19;;;;;;;24.30;8.77;;;6.10;99.90;;;;;;4883959;29;20170;-94
2022/01/12 14:33:45;;;;;;;29.23;8.93;;;5.20;99.90;;;;;;4884187;29;20070;-92
2022/01/12 14:36:23;;;;;;;27.93;9.10;;;5.10;99.90;;;;;;4883405;29;20135;-93
2022/01/12 14:38:57;;;;;;;37.60;10.33;;;5.10;99.90;;;;;;4883517;29;20404;-93
2022/01/12 14:41:56;;;;;;;;;;;5.30;99.90;;;;;;4883697;29;20409;-93
2022/01/12 14:47:05;;;;;;;49.93;24.57;;;5.20;99.90;;;;;;4918611;23;20076;-93
2022/01/12 14:50:04;;;;;;;29.33;9.23;;;5.20;99.90;;;;;;4879315;29;20061;-90
2022/01/12 14:53:13;;;;;;;27.57;10.13;;;5.20;99.90;;;;;;4895754;29;20056;-93
2022/01/12 14:55:42;;;;;;;28.53;9.63;;;5.30;99.90;;;;;;4885610;29;20061;-93
2022/01/12 14:58:21;;;;;;;27.37;9.13;;;4.90;99.90;;;;;;4899099;29;20048;-94
2022/01/12 15:00:48;;;;;;;26.47;10.53;;;4.70;99.90;;;;;;4900716;29;20044;-94
2022/01/12 15:03:21;;;;;;;30.57;11.13;;;5.20;99.90;;;;;;4887383;29;20051;-92
2022/01/12 15:05:51;;;;;;;24.67;9.23;;;5.30;99.90;;;;;;4904910;29;20053;-92
2022/01/12 15:08:23;;;;;;;29.27;10.97;;;5.90;99.90;;;;;;4882596;29;20409;-91
2022/01/12 15:10:53;;;;;;;30.30;11.93;;;5.80;99.90;;;;;;4898713;29;20052;-92
2022/01/12 15:16:32;;;;;;;27.97;8.90;;;4.40;99.90;;;;;;4901813;29;20033;-92
2022/01/12 15:19:00;;;;;;;26.63;10.57;;;4.70;99.90;;;;;;4885488;29;20132;-92
2022/01/12 15:21:32;;;;;;;26.10;11.33;;;4.70;99.90;;;;;;4900228;29;20049;-92
2022/01/12 15:24:07;;;;;;;30.63;11.73;;;4.20;99.90;;;;;;4898616;29;20498;-91
2022/01/12 15:26:32;;;;;;;24.97;9.93;;;5.30;99.90;;;;;;4898287;29;20400;-94
2022/01/12 15:28:59;;;;;;;32.53;14.57;;;5.20;99.90;;;;;;4882450;29;20551;-91
2022/01/12 15:31:30;;;;;;;25.07;9.37;;;4.30;99.90;;;;;;4898171;29;20143;-92
2022/01/12 15:34:11;;;;;;;31.10;11.33;;;4.50;99.90;;;;;;4898936;29;20064;-92
2022/01/12 15:36:40;;;;;;;28.27;12.35;;;5.70;99.90;;;;;;4898155;29;20048;-92
2022/01/12 15:39:10;;;;;;;27.57;10.90;;;4.40;99.90;;;;;;4901200;23;20474;-92
2022/01/12 15:41:41;;;;;;;24.23;9.30;;;4.50;99.90;;;;;;4910981;23;20140;-91
2022/01/12 15:45:16;;;;;;;31.90;9.80;;;5.40;99.90;;;;;;4893596;24;20112;-91
2022/01/12 15:48:54;;;;;;;33.17;14.38;;;4.90;99.90;;;;;;4897534;29;20053;-90
2022/01/12 15:51:27;;;;;;;35.87;15.00;;;4.50;99.90;;;;;;4896516;29;20059;-92
2022/01/12 15:53:55;;;;;;;33.73;10.70;;;4.30;99.90;;;;;;4897541;29;20059;-91
2022/01/12 15:56:36;;;;;;;36.53;11.63;;;3.70;99.90;;;;;;4896657;29;20045;-92
2022/01/12 15:59:05;;;;;;;51.90;26.33;;;4.80;99.90;;;;;;4897260;29;20112;-93
2022/01/12 16:01:31;;;;;;;49.50;24.07;;;4.70;99.90;;;;;;4896836;29;20044;-91